createdAt,value
2022-08-28T00:00:14.117Z,35.04
2022-08-28T00:02:41.293Z,35.28
2022-08-28T00:05:09.444Z,35.48
2022-08-28T00:07:36.387Z,35.20
2022-08-28T00:10:05.771Z,35.43
2022-08-28T00:12:32.508Z,34.91
2022-08-28T00:14:59.491Z,34.94
2022-08-28T00:17:25.970Z,35.22
2022-08-28T00:19:52.511Z,35.33
2022-08-28T00:22:19.235Z,35.08
2022-08-28T00:24:45.785Z,35.34
2022-08-28T00:27:30.763Z,35.36
2022-08-28T00:29:57.175Z,35.17
2022-08-28T00:32:25.185Z,34.77
2022-08-28T00:34:52.104Z,35.09
2022-08-28T00:37:19.111Z,35.33
2022-08-28T00:39:46.383Z,35.02
2022-08-28T00:42:14.087Z,35.25
2022-08-28T00:44:40.618Z,34.80
2022-08-28T00:47:07.107Z,35.29
2022-08-28T00:49:37.498Z,35.18
2022-08-28T00:52:12.058Z,35.18
2022-08-28T00:54:58.487Z,34.90
2022-08-28T00:57:33.859Z,34.89
2022-08-28T01:00:00.794Z,35.05
2022-08-28T01:02:28.118Z,35.13
2022-08-28T01:04:55.367Z,34.73
2022-08-28T01:07:23.211Z,34.77
2022-08-28T01:09:53.978Z,34.72
2022-08-28T01:12:28.442Z,34.94
2022-08-28T01:15:01.235Z,35.06
2022-08-28T01:17:31.197Z,35.07
2022-08-28T01:20:06.942Z,34.62
2022-08-28T01:22:41.486Z,35.08
2022-08-28T01:25:13.187Z,34.78
2022-08-28T01:27:42.050Z,35.06
2022-08-28T01:30:15.253Z,34.80
2022-08-28T01:32:45.420Z,34.73
2022-08-28T01:35:15.581Z,35.14
2022-08-28T01:37:42.874Z,34.76
2022-08-28T01:40:14.157Z,35.09
2022-08-28T01:42:43.015Z,35.10
2022-08-28T01:45:13.404Z,34.79
2022-08-28T01:47:42.051Z,34.74
2022-08-28T01:50:12.028Z,34.93
2022-08-28T01:52:39.659Z,34.70
2022-08-28T01:55:07.371Z,34.75
2022-08-28T01:57:34.707Z,34.92
2022-08-28T02:00:01.626Z,34.90
2022-08-28T02:02:28.796Z,34.58
2022-08-28T02:04:55.250Z,34.50
2022-08-28T02:07:21.745Z,34.80
2022-08-28T02:09:48.206Z,34.74
2022-08-28T02:12:14.725Z,34.71
2022-08-28T02:14:41.245Z,34.35
2022-08-28T02:17:07.694Z,34.74
2022-08-28T02:19:34.286Z,34.54
2022-08-28T02:22:00.741Z,34.95
2022-08-28T02:24:27.352Z,34.73
2022-08-28T02:26:53.806Z,34.40
2022-08-28T02:29:20.279Z,34.54
2022-08-28T02:31:46.710Z,34.67
2022-08-28T02:34:13.167Z,34.42
2022-08-28T02:36:41.733Z,34.41
2022-08-28T02:39:11.619Z,34.67
2022-08-28T02:41:38.723Z,34.64
2022-08-28T02:44:05.152Z,34.50
2022-08-28T02:46:31.901Z,34.58
2022-08-28T02:48:58.394Z,34.28
2022-08-28T02:51:25.595Z,34.68
2022-08-28T02:53:52.375Z,34.37
2022-08-28T02:56:18.851Z,34.54
2022-08-28T02:58:45.317Z,34.59
2022-08-28T03:01:13.502Z,34.34
2022-08-28T03:03:41.465Z,34.57
2022-08-28T03:06:09.314Z,34.53
2022-08-28T03:08:35.974Z,34.55
2022-08-28T03:11:02.479Z,34.48
2022-08-28T03:13:30.045Z,34.47
2022-08-28T03:15:57.763Z,34.59
2022-08-28T03:18:26.319Z,34.67
2022-08-28T03:20:53.999Z,34.34
2022-08-28T03:23:26.278Z,34.59
2022-08-28T03:25:54.000Z,34.72
2022-08-28T03:28:20.490Z,34.50
2022-08-28T03:30:47.654Z,34.70
2022-08-28T03:33:14.540Z,34.55
2022-08-28T03:35:41.102Z,34.27
2022-08-28T03:38:07.607Z,34.58
2022-08-28T03:40:38.222Z,34.75
2022-08-28T03:43:07.612Z,34.75
2022-08-28T03:45:34.173Z,34.30
2022-08-28T03:48:00.722Z,34.42
2022-08-28T03:50:27.465Z,34.20
2022-08-28T03:52:56.045Z,34.20
2022-08-28T03:55:22.886Z,34.63
2022-08-28T03:57:49.347Z,34.51
2022-08-28T04:00:16.450Z,34.38
2022-08-28T04:02:44.226Z,34.33
2022-08-28T04:05:11.652Z,34.05
2022-08-28T04:07:39.461Z,34.37
2022-08-28T04:10:06.859Z,34.04
2022-08-28T04:12:35.384Z,34.32
2022-08-28T04:15:01.987Z,33.90
2022-08-28T04:17:28.426Z,34.00
2022-08-28T04:19:54.978Z,34.12
2022-08-28T04:22:21.464Z,33.84
2022-08-28T04:24:50.122Z,33.78
2022-08-28T04:27:16.555Z,33.75
2022-08-28T04:29:43.086Z,34.07
2022-08-28T04:32:09.809Z,33.82
2022-08-28T04:34:37.771Z,33.99
2022-08-28T04:37:05.432Z,33.64
2022-08-28T04:39:32.687Z,33.80
2022-08-28T04:41:59.906Z,33.78
2022-08-28T04:44:26.552Z,33.72
2022-08-28T04:46:54.230Z,33.97
2022-08-28T04:49:22.862Z,33.87
2022-08-28T04:51:52.492Z,33.62
2022-08-28T04:54:19.106Z,34.02
2022-08-28T04:56:46.347Z,34.04
2022-08-28T04:59:13.286Z,33.67
2022-08-28T05:01:42.614Z,33.88
2022-08-28T05:04:11.516Z,33.87
2022-08-28T05:06:43.337Z,33.82
2022-08-28T05:09:09.762Z,33.93
2022-08-28T05:11:36.263Z,33.72
2022-08-28T05:14:05.607Z,33.64
2022-08-28T05:16:34.569Z,33.92
2022-08-28T05:19:02.511Z,33.71
2022-08-28T05:21:29.206Z,33.96
2022-08-28T05:23:57.671Z,33.82
2022-08-28T05:26:27.124Z,33.78
2022-08-28T05:28:56.976Z,34.05
2022-08-28T05:31:24.805Z,33.95
2022-08-28T05:33:52.769Z,33.87
2022-08-28T05:36:22.575Z,33.74
2022-08-28T05:38:50.198Z,33.85
2022-08-28T05:41:22.678Z,33.83
2022-08-28T05:43:50.045Z,34.03
2022-08-28T05:46:17.366Z,33.98
2022-08-28T05:48:45.742Z,34.01
2022-08-28T05:51:14.915Z,34.12
2022-08-28T05:53:43.654Z,34.22
2022-08-28T05:56:12.380Z,33.97
2022-08-28T05:58:40.386Z,34.07
2022-08-28T06:01:13.053Z,34.01
2022-08-28T06:03:41.163Z,33.94
2022-08-28T06:06:09.359Z,34.38
2022-08-28T06:08:36.480Z,34.27
2022-08-28T06:11:05.190Z,34.44
2022-08-28T06:13:34.586Z,34.62
2022-08-28T06:16:02.864Z,34.55
2022-08-28T06:18:29.406Z,34.85
2022-08-28T06:20:55.930Z,34.95
2022-08-28T06:23:24.181Z,35.17
2022-08-28T06:25:51.649Z,35.13
2022-08-28T06:28:25.216Z,35.65
2022-08-28T06:31:18.039Z,35.08
2022-08-28T06:33:40.158Z,35.29
2022-08-28T06:36:07.765Z,35.10
2022-08-28T06:38:34.767Z,35.35
2022-08-28T06:41:01.295Z,34.91
2022-08-28T06:43:29.702Z,35.14
2022-08-28T06:45:57.631Z,34.83
2022-08-28T06:48:27.511Z,34.94
2022-08-28T06:50:55.976Z,34.82
2022-08-28T06:53:25.806Z,35.22
2022-08-28T06:56:00.289Z,35.16
2022-08-28T06:58:27.918Z,35.25
2022-08-28T07:01:25.607Z,35.30
2022-08-28T07:03:54.365Z,35.50
2022-08-28T07:06:22.183Z,35.84
2022-08-28T07:08:49.055Z,35.41
2022-08-28T07:11:20.961Z,35.20
2022-08-28T07:13:48.476Z,35.41
2022-08-28T07:16:17.387Z,35.31
2022-08-28T07:18:45.338Z,35.18
2022-08-28T07:21:13.583Z,35.09
2022-08-28T07:23:42.177Z,35.31
2022-08-28T07:26:11.837Z,35.35
2022-08-28T07:28:38.721Z,35.94
2022-08-28T07:31:13.706Z,35.99
2022-08-28T07:33:41.506Z,35.73
2022-08-28T07:36:29.232Z,35.98
2022-08-28T07:38:58.325Z,36.30
2022-08-28T07:41:27.596Z,36.30
2022-08-28T07:44:13.060Z,36.41
2022-08-28T07:46:40.791Z,36.00
2022-08-28T07:49:08.761Z,36.04
2022-08-28T07:51:36.226Z,36.07
2022-08-28T07:54:03.970Z,36.22
2022-08-28T07:56:31.372Z,36.16
2022-08-28T07:58:59.391Z,36.18
2022-08-28T08:01:27.451Z,36.28
2022-08-28T08:04:01.566Z,36.13
2022-08-28T08:06:34.040Z,36.09
2022-08-28T08:09:01.830Z,36.04
2022-08-28T08:11:28.440Z,36.23
2022-08-28T08:14:04.739Z,36.04
2022-08-28T08:16:35.513Z,35.96
2022-08-28T08:19:02.614Z,36.05
2022-08-28T08:21:30.435Z,35.74
2022-08-28T08:23:58.275Z,35.96
2022-08-28T08:26:27.965Z,35.83
2022-08-28T08:28:55.705Z,35.96
2022-08-28T08:31:22.155Z,36.05
2022-08-28T08:33:51.956Z,35.93
2022-08-28T08:36:21.350Z,36.03
2022-08-28T08:38:48.911Z,36.00
2022-08-28T08:41:39.068Z,35.89
2022-08-28T08:44:08.975Z,36.26
2022-08-28T08:46:46.105Z,35.94
2022-08-28T08:49:19.603Z,35.95
2022-08-28T08:52:16.871Z,35.96
2022-08-28T08:54:50.027Z,35.96
2022-08-28T08:57:16.529Z,36.26
2022-08-28T08:59:42.975Z,36.12
2022-08-28T09:02:19.194Z,35.94
2022-08-28T09:05:04.844Z,36.29
2022-08-28T09:07:40.974Z,36.16
2022-08-28T09:10:14.371Z,36.25
2022-08-28T09:13:32.650Z,36.32
2022-08-28T09:16:00.948Z,36.41
2022-08-28T09:18:33.073Z,36.14
2022-08-28T09:21:00.367Z,36.09
2022-08-28T09:23:29.878Z,36.62
2022-08-28T09:26:01.839Z,36.48
2022-08-28T09:28:36.892Z,36.74
2022-08-28T09:31:03.406Z,36.51
2022-08-28T09:33:38.524Z,36.76
2022-08-28T09:36:27.288Z,37.01
2022-08-28T09:39:13.450Z,37.17
2022-08-28T09:42:07.787Z,37.29
2022-08-28T09:44:48.982Z,37.30
2022-08-28T09:47:57.754Z,37.71
2022-08-28T09:50:42.377Z,37.76
2022-08-28T09:53:08.771Z,38.01
2022-08-28T09:55:57.805Z,38.45
2022-08-28T09:58:32.246Z,38.37
2022-08-28T10:01:10.599Z,38.25
2022-08-28T10:03:50.006Z,38.36
2022-08-28T10:06:28.231Z,38.30
2022-08-28T10:09:25.833Z,38.37
2022-08-28T10:12:04.550Z,38.30
2022-08-28T10:14:56.746Z,38.29
2022-08-28T10:17:57.883Z,38.44
2022-08-28T10:20:44.692Z,38.17
2022-08-28T10:23:41.265Z,38.57
2022-08-28T10:26:48.012Z,38.13
2022-08-28T10:29:45.570Z,38.18
2022-08-28T10:32:35.272Z,38.16
2022-08-28T10:35:25.846Z,38.87
2022-08-28T10:37:57.771Z,38.64
2022-08-28T10:40:27.103Z,38.43
2022-08-28T10:43:01.990Z,37.91
2022-08-28T10:45:30.443Z,37.97
2022-08-28T10:48:22.336Z,38.63
2022-08-28T10:50:56.472Z,38.92
2022-08-28T10:53:29.378Z,39.23
2022-08-28T10:56:05.114Z,38.13
2022-08-28T10:58:33.914Z,38.30
2022-08-28T11:01:05.756Z,38.27
2022-08-28T11:03:42.818Z,38.43
2022-08-28T11:06:22.499Z,38.63
2022-08-28T11:08:56.386Z,38.43
2022-08-28T11:11:41.802Z,38.68
2022-08-28T11:14:08.881Z,38.43
2022-08-28T11:16:40.575Z,38.32
2022-08-28T11:19:23.156Z,38.24
2022-08-28T11:22:00.333Z,38.26
2022-08-28T11:24:43.588Z,38.34
2022-08-28T11:27:12.930Z,38.48
2022-08-28T11:30:02.027Z,38.41
2022-08-28T11:32:34.671Z,38.36
2022-08-28T11:35:02.799Z,38.43
2022-08-28T11:37:42.565Z,38.48
2022-08-28T11:40:18.370Z,38.41
2022-08-28T11:42:48.701Z,38.76
2022-08-28T11:45:40.055Z,38.38
2022-08-28T11:48:29.674Z,38.55
2022-08-28T11:50:58.031Z,37.95
2022-08-28T11:53:57.709Z,37.93
2022-08-28T11:56:35.883Z,38.01
2022-08-28T11:59:35.235Z,37.81
2022-08-28T12:02:44.062Z,37.51
2022-08-28T12:05:16.642Z,37.51
2022-08-28T12:07:51.070Z,37.60
2022-08-28T12:10:20.506Z,37.23
2022-08-28T12:12:46.952Z,37.57
2022-08-28T12:15:34.052Z,37.66
2022-08-28T12:18:25.046Z,37.71
2022-08-28T12:20:51.435Z,37.56
2022-08-28T12:23:26.771Z,37.52
2022-08-28T12:26:02.767Z,37.53
2022-08-28T12:28:39.611Z,37.58
2022-08-28T12:31:06.088Z,37.13
2022-08-28T12:33:37.331Z,37.20
2022-08-28T12:36:06.583Z,37.15
2022-08-28T12:38:34.439Z,37.07
2022-08-28T12:41:02.757Z,37.39
2022-08-28T12:43:40.857Z,37.00
2022-08-28T12:46:27.115Z,37.21
2022-08-28T12:48:55.113Z,37.02
2022-08-28T12:51:25.073Z,37.03
2022-08-28T12:53:55.389Z,37.09
2022-08-28T12:56:24.192Z,36.91
2022-08-28T12:58:51.046Z,36.90
2022-08-28T13:01:27.360Z,37.05
2022-08-28T13:03:59.538Z,36.88
2022-08-28T13:06:39.584Z,36.59
2022-08-28T13:09:14.903Z,36.69
2022-08-28T13:11:49.059Z,36.91
2022-08-28T13:14:36.196Z,36.92
2022-08-28T13:17:03.065Z,36.88
2022-08-28T13:19:34.855Z,37.01
2022-08-28T13:22:08.543Z,36.60
2022-08-28T13:24:34.927Z,36.91
2022-08-28T13:27:06.429Z,36.83
2022-08-28T13:29:33.922Z,37.04
2022-08-28T13:32:06.654Z,36.83
2022-08-28T13:34:36.098Z,36.57
2022-08-28T13:37:14.783Z,36.71
2022-08-28T13:39:46.790Z,36.25
2022-08-28T13:42:17.914Z,35.99
2022-08-28T13:44:55.480Z,35.76
2022-08-28T13:47:22.479Z,34.50
2022-08-28T13:49:49.114Z,34.41
2022-08-28T13:52:15.687Z,33.61
2022-08-28T13:54:43.767Z,32.98
2022-08-28T13:57:13.473Z,31.92
2022-08-28T13:59:39.995Z,32.16
2022-08-28T14:02:29.133Z,33.08
2022-08-28T14:04:55.711Z,33.89
2022-08-28T14:07:22.265Z,33.41
2022-08-28T14:09:50.928Z,33.40
2022-08-28T14:12:20.639Z,32.75
2022-08-28T14:14:48.726Z,33.13
2022-08-28T14:17:15.374Z,33.27
2022-08-28T14:19:42.143Z,33.24
2022-08-28T14:22:08.899Z,33.67
2022-08-28T14:24:35.331Z,34.07
2022-08-28T14:27:02.657Z,34.70
2022-08-28T14:29:29.105Z,34.90
2022-08-28T14:31:55.611Z,35.51
2022-08-28T14:34:23.424Z,35.59
2022-08-28T14:36:54.946Z,35.90
2022-08-28T14:39:23.783Z,36.16
2022-08-28T14:41:51.683Z,36.62
2022-08-28T14:44:19.801Z,36.88
2022-08-28T14:46:49.282Z,36.97
2022-08-28T14:49:18.569Z,36.56
2022-08-28T14:51:46.907Z,36.46
2022-08-28T14:54:15.854Z,36.63
2022-08-28T14:56:43.623Z,36.00
2022-08-28T14:59:16.676Z,35.78
2022-08-28T15:01:45.123Z,35.45
2022-08-28T15:04:15.594Z,35.19
2022-08-28T15:06:43.150Z,35.23
2022-08-28T15:09:11.191Z,35.61
2022-08-28T15:11:38.170Z,35.91
2022-08-28T15:14:06.402Z,35.91
2022-08-28T15:16:39.221Z,36.34
2022-08-28T15:19:07.294Z,36.37
2022-08-28T15:21:38.332Z,36.43
2022-08-28T15:24:06.752Z,36.29
2022-08-28T15:26:34.017Z,36.74
2022-08-28T15:29:04.026Z,36.57
2022-08-28T15:31:37.165Z,36.76
2022-08-28T15:34:13.499Z,36.58
2022-08-28T15:36:41.620Z,36.31
2022-08-28T15:39:27.421Z,36.18
2022-08-28T15:41:54.144Z,36.56
2022-08-28T15:44:20.797Z,36.45
2022-08-28T15:46:56.230Z,36.66
2022-08-28T15:49:24.548Z,36.68
2022-08-28T15:51:52.606Z,36.55
2022-08-28T15:54:20.930Z,36.71
2022-08-28T15:56:48.014Z,36.41
2022-08-28T15:59:17.755Z,36.50
2022-08-28T16:01:44.989Z,36.13
2022-08-28T16:04:11.930Z,36.16
2022-08-28T16:06:38.367Z,35.71
2022-08-28T16:09:06.555Z,35.55
2022-08-28T16:11:33.880Z,35.51
2022-08-28T16:14:04.619Z,35.83
2022-08-28T16:16:32.182Z,35.65
2022-08-28T16:18:59.187Z,35.54
2022-08-28T16:21:26.857Z,35.65
2022-08-28T16:23:54.800Z,35.53
2022-08-28T16:26:21.386Z,35.61
2022-08-28T16:28:48.043Z,35.55
2022-08-28T16:31:19.160Z,35.56
2022-08-28T16:33:48.171Z,35.51
2022-08-28T16:36:15.886Z,35.17
2022-08-28T16:38:45.707Z,35.38
2022-08-28T16:41:21.892Z,35.23
2022-08-28T16:43:49.882Z,35.10
2022-08-28T16:46:20.221Z,35.10
2022-08-28T16:48:47.520Z,35.26
2022-08-28T16:51:15.675Z,35.47
2022-08-28T16:53:42.763Z,35.30
2022-08-28T16:56:10.875Z,35.50
2022-08-28T16:58:39.459Z,35.41
2022-08-28T17:01:08.356Z,35.44
2022-08-28T17:03:38.677Z,35.49
2022-08-28T17:06:26.567Z,35.61
2022-08-28T17:08:56.898Z,35.75
2022-08-28T17:11:28.142Z,35.82
2022-08-28T17:13:55.353Z,36.02
2022-08-28T17:16:23.741Z,35.90
2022-08-28T17:18:52.399Z,36.26
2022-08-28T17:21:38.675Z,35.86
2022-08-28T17:24:05.398Z,35.92
2022-08-28T17:26:31.849Z,35.90
2022-08-28T17:28:58.436Z,35.90
2022-08-28T17:31:24.924Z,35.37
2022-08-28T17:33:51.653Z,36.27
2022-08-28T17:36:32.499Z,36.08
2022-08-28T17:39:02.940Z,36.15
2022-08-28T17:41:29.544Z,36.88
2022-08-28T17:43:56.050Z,36.63
2022-08-28T17:46:22.575Z,37.13
2022-08-28T17:48:54.562Z,36.75
2022-08-28T17:51:40.364Z,36.90
2022-08-28T17:54:10.161Z,37.09
2022-08-28T17:56:36.624Z,37.15
2022-08-28T17:59:03.074Z,37.19
2022-08-28T18:01:29.670Z,37.37
2022-08-28T18:03:56.357Z,37.17
2022-08-28T18:06:22.867Z,37.28
2022-08-28T18:08:51.744Z,37.29
2022-08-28T18:11:19.119Z,37.70
2022-08-28T18:13:46.447Z,37.75
2022-08-28T18:16:13.309Z,37.72
2022-08-28T18:18:40.090Z,37.84
2022-08-28T18:21:06.637Z,37.78
2022-08-28T18:23:33.147Z,37.84
2022-08-28T18:25:59.598Z,38.05
2022-08-28T18:28:29.433Z,37.99
2022-08-28T18:30:56.024Z,38.20
2022-08-28T18:33:24.229Z,38.10
2022-08-28T18:35:51.731Z,38.19
2022-08-28T18:38:21.467Z,38.43
2022-08-28T18:40:49.235Z,38.15
2022-08-28T18:43:17.706Z,38.10
2022-08-28T18:45:44.255Z,38.08
2022-08-28T18:48:10.801Z,38.38
2022-08-28T18:50:37.936Z,38.56
2022-08-28T18:53:05.528Z,38.63
2022-08-28T18:55:32.971Z,38.61
2022-08-28T18:58:01.101Z,38.59
2022-08-28T19:00:28.350Z,38.77
2022-08-28T19:02:55.280Z,38.61
2022-08-28T19:05:22.671Z,38.58
2022-08-28T19:07:49.639Z,38.53
2022-08-28T19:10:32.946Z,38.61
2022-08-28T19:13:01.251Z,38.69
2022-08-28T19:15:28.356Z,38.77
2022-08-28T19:17:54.860Z,38.48
2022-08-28T19:20:22.029Z,38.70
2022-08-28T19:22:48.903Z,38.93
2022-08-28T19:25:19.138Z,38.57
2022-08-28T19:27:56.339Z,38.64
2022-08-28T19:30:25.983Z,38.60
2022-08-28T19:32:52.576Z,38.60
2022-08-28T19:35:19.133Z,38.81
2022-08-28T19:37:45.975Z,38.42
2022-08-28T19:40:14.143Z,38.57
2022-08-28T19:42:41.871Z,38.38
2022-08-28T19:45:12.381Z,38.77
2022-08-28T19:47:40.056Z,38.69
2022-08-28T19:50:08.425Z,38.67
2022-08-28T19:52:36.417Z,38.50
2022-08-28T19:55:05.935Z,39.00
2022-08-28T19:57:33.054Z,38.71
2022-08-28T20:00:00.132Z,38.80
2022-08-28T20:02:28.487Z,38.70
2022-08-28T20:04:55.366Z,38.67
2022-08-28T20:07:22.131Z,38.80
2022-08-28T20:09:48.582Z,38.79
2022-08-28T20:12:15.047Z,39.01
2022-08-28T20:14:42.549Z,39.09
2022-08-28T20:17:09.104Z,38.63
2022-08-28T20:19:35.898Z,38.94
2022-08-28T20:22:03.778Z,38.63
2022-08-28T20:24:30.348Z,38.84
2022-08-28T20:26:57.099Z,38.78
2022-08-28T20:29:24.225Z,38.87
2022-08-28T20:31:50.943Z,38.85
2022-08-28T20:34:19.226Z,38.78
2022-08-28T20:36:46.400Z,38.83
2022-08-28T20:39:13.123Z,39.16
2022-08-28T20:41:40.969Z,39.32
2022-08-28T20:44:09.318Z,39.10
2022-08-28T20:46:40.945Z,39.45
2022-08-28T20:49:10.274Z,39.47
2022-08-28T20:51:58.792Z,39.19
2022-08-28T20:54:31.086Z,39.39
2022-08-28T20:57:01.709Z,39.55
2022-08-28T20:59:35.525Z,39.39
2022-08-28T21:02:13.296Z,39.45
2022-08-28T21:04:40.933Z,39.20
2022-08-28T21:07:08.147Z,39.56
2022-08-28T21:09:58.143Z,39.42
2022-08-28T21:12:21.427Z,39.28
2022-08-28T21:14:51.510Z,39.69
2022-08-28T21:17:20.856Z,39.42
2022-08-28T21:19:56.589Z,39.40
2022-08-28T21:22:23.042Z,40.05
2022-08-28T21:24:49.906Z,39.33
2022-08-28T21:27:16.336Z,39.48
2022-08-28T21:29:46.323Z,39.30
2022-08-28T21:32:13.061Z,39.89
2022-08-28T21:34:39.604Z,39.69
2022-08-28T21:37:06.423Z,39.77
2022-08-28T21:39:33.834Z,39.56
2022-08-28T21:42:00.320Z,39.67
2022-08-28T21:44:26.815Z,39.43
2022-08-28T21:46:53.350Z,39.40
2022-08-28T21:49:20.257Z,39.62
2022-08-28T21:51:47.004Z,39.47
2022-08-28T21:54:13.615Z,39.37
2022-08-28T21:56:40.214Z,39.73
2022-08-28T21:59:06.786Z,39.21
2022-08-28T22:01:33.598Z,39.55
2022-08-28T22:04:00.111Z,39.19
2022-08-28T22:06:26.680Z,39.41
2022-08-28T22:08:54.696Z,39.29
2022-08-28T22:11:25.046Z,39.68
2022-08-28T22:13:52.026Z,39.60
2022-08-28T22:16:19.289Z,39.53
2022-08-28T22:18:45.987Z,39.61
2022-08-28T22:21:37.191Z,39.58
2022-08-28T22:24:04.976Z,39.54
2022-08-28T22:26:31.726Z,39.15
2022-08-28T22:28:58.779Z,39.34
2022-08-28T22:31:25.326Z,39.09
2022-08-28T22:33:52.138Z,39.09
2022-08-28T22:36:20.344Z,39.52
2022-08-28T22:38:53.181Z,38.92
2022-08-28T22:41:20.587Z,39.24
2022-08-28T22:43:51.238Z,39.07
2022-08-28T22:46:20.408Z,39.19
2022-08-28T22:48:47.202Z,39.14
2022-08-28T22:51:16.812Z,39.31
2022-08-28T22:53:43.659Z,39.19
2022-08-28T22:56:12.229Z,39.27
2022-08-28T22:58:39.711Z,39.30
2022-08-28T23:01:11.098Z,39.24
2022-08-28T23:03:38.869Z,39.20
2022-08-28T23:06:05.898Z,39.08
2022-08-28T23:08:34.144Z,39.19
2022-08-28T23:11:01.262Z,39.00
2022-08-28T23:13:28.175Z,38.90
2022-08-28T23:15:54.631Z,39.22
2022-08-28T23:18:21.195Z,39.05
2022-08-28T23:20:47.982Z,38.98
2022-08-28T23:23:17.223Z,39.19
2022-08-28T23:25:43.863Z,39.06
2022-08-28T23:28:10.396Z,39.05
2022-08-28T23:30:38.869Z,39.05
2022-08-28T23:33:08.463Z,39.13
2022-08-28T23:35:35.815Z,38.95
2022-08-28T23:38:03.723Z,38.84
2022-08-28T23:40:30.531Z,39.00
2022-08-28T23:42:58.046Z,38.97
2022-08-28T23:45:26.035Z,38.99
2022-08-28T23:47:54.020Z,38.77
2022-08-28T23:50:23.255Z,38.83
2022-08-28T23:52:50.013Z,38.81
2022-08-28T23:55:19.095Z,38.96
2022-08-28T23:57:46.036Z,38.97
